Time;durP1;ratioP1;P1;durP2;ratioP2;P2;SDS_P1;SDS_P2;PMS_P1;PMS_P2;Temp;Humidity;BMP_temperature;BMP_pressure;BME280_temperature;BME280_humidity;BME280_pressure;Samples;Min_cycle;Max_cycle;Signal;HPM_P1;HPM_P2
2022/03/05 00:01:20;;;;;;;;;;;4.30;70.90;;;;;;5068754;28;19928;-73
2022/03/05 00:03:46;;;;;;;;;;;4.20;71.00;;;;;;5068575;28;19920;-74
2022/03/05 00:06:11;;;;;;;;;;;4.10;71.00;;;;;;5070083;28;19962;-74
2022/03/05 00:08:37;;;;;;;;;;;4.00;71.00;;;;;;5069733;28;20328;-74
2022/03/05 00:11:03;;;;;;;;;;;3.90;71.20;;;;;;5068398;28;19967;-74
2022/03/05 00:13:28;;;;;;;;;;;3.90;71.30;;;;;;5069686;28;19951;-74
2022/03/05 00:15:54;;;;;;;;;;;3.80;71.30;;;;;;5069375;28;20320;-65
2022/03/05 00:18:20;;;;;;;;;;;3.80;71.40;;;;;;5069267;28;19913;-73
2022/03/05 00:20:46;;;;;;;;;;;3.80;71.60;;;;;;5069544;28;20291;-74
2022/03/05 00:23:14;;;;;;;;;;;3.80;71.50;;;;;;5069698;28;19912;-74
2022/03/05 00:25:39;;;;;;;;;;;3.80;71.50;;;;;;5069510;28;20345;-74
2022/03/05 00:28:05;;;;;;;;;;;3.80;71.40;;;;;;5069348;28;19913;-74
2022/03/05 00:30:30;;;;;;;;;;;3.80;71.20;;;;;;5069605;28;19912;-74
2022/03/05 00:32:56;;;;;;;;;;;3.80;71.10;;;;;;5068016;28;19916;-74
2022/03/05 00:35:21;;;;;;;;;;;3.90;71.10;;;;;;5069143;28;19925;-74
2022/03/05 00:37:47;;;;;;;;;;;3.80;71.20;;;;;;5069550;28;19920;-74
2022/03/05 00:40:13;;;;;;;;;;;3.80;71.20;;;;;;5067901;28;19919;-74
2022/03/05 00:42:38;;;;;;;;;;;3.80;71.10;;;;;;5069277;28;20480;-73
2022/03/05 00:45:05;;;;;;;;;;;3.70;71.10;;;;;;5069080;28;19942;-74
2022/03/05 00:47:32;;;;;;;;;;;3.70;71.20;;;;;;5068946;28;19924;-74
2022/03/05 00:49:57;;;;;;;;;;;3.70;71.30;;;;;;5068926;28;20287;-74
2022/03/05 00:52:23;;;;;;;;;;;3.70;71.30;;;;;;5068894;28;19912;-74
2022/03/05 00:54:48;;;;;;;;;;;3.70;71.30;;;;;;5069169;28;20377;-74
2022/03/05 00:57:14;;;;;;;;;;;3.70;71.30;;;;;;5068909;28;19978;-74
2022/03/05 00:59:40;;;;;;;;;;;3.70;71.30;;;;;;5068804;28;19915;-74
2022/03/05 01:02:06;;;;;;;;;;;3.70;71.30;;;;;;5068451;28;19920;-74
2022/03/05 01:04:32;;;;;;;;;;;3.70;71.40;;;;;;5068773;28;19928;-74
2022/03/05 01:06:57;;;;;;;;;;;3.60;71.40;;;;;;5068789;28;20354;-74
2022/03/05 01:09:23;;;;;;;;;;;3.60;71.40;;;;;;5068542;28;20309;-73
2022/03/05 01:11:48;;;;;;;;;;;3.60;71.40;;;;;;5068607;28;19920;-73
2022/03/05 01:14:14;;;;;;;;;;;3.50;71.20;;;;;;5068473;28;19924;-74
2022/03/05 01:16:39;;;;;;;;;;;3.30;71.40;;;;;;5068943;28;19957;-74
2022/03/05 01:19:05;;;;;;;;;;;3.30;71.60;;;;;;5068215;28;19924;-74
2022/03/05 01:21:31;;;;;;;;;;;3.20;71.60;;;;;;5068304;28;19916;-74
2022/03/05 01:23:56;;;;;;;;;;;3.20;71.50;;;;;;5066543;28;19922;-74
2022/03/05 01:26:22;;;;;;;;;;;3.20;71.60;;;;;;5068446;28;20334;-74
2022/03/05 01:28:47;;;;;;;;;;;3.20;71.70;;;;;;5068326;28;19920;-74
2022/03/05 01:31:14;;;;;;;;;;;3.20;71.80;;;;;;5068564;28;19958;-74
2022/03/05 01:33:39;;;;;;;;;;;3.20;71.70;;;;;;5068058;28;19920;-74
2022/03/05 01:36:05;;;;;;;;;;;3.20;72.10;;;;;;5067004;28;19913;-74
2022/03/05 01:38:30;;;;;;;;;;;3.10;71.60;;;;;;5068049;28;19951;-74
2022/03/05 01:40:56;;;;;;;;;;;3.10;71.60;;;;;;5068229;28;19913;-74
2022/03/05 01:43:22;;;;;;;;;;;3.10;71.60;;;;;;5068003;28;19990;-73
2022/03/05 01:45:47;;;;;;;;;;;3.10;71.50;;;;;;5068181;28;20453;-74
2022/03/05 01:48:13;;;;;;;;;;;3.10;71.60;;;;;;5068104;28;19920;-74
2022/03/05 01:50:38;;;;;;;;;;;3.00;71.60;;;;;;5067013;28;19916;-74
2022/03/05 01:53:04;;;;;;;;;;;3.00;71.60;;;;;;5068136;28;19959;-74
2022/03/05 01:55:31;;;;;;;;;;;3.00;71.50;;;;;;5068145;28;19912;-74
2022/03/05 01:57:56;;;;;;;;;;;2.90;71.60;;;;;;5067822;28;19954;-74
2022/03/05 02:00:58;;;;;;;;;;;2.70;71.50;;;;;;5068776;28;20343;-65
2022/03/05 02:03:23;;;;;;;;;;;2.70;71.80;;;;;;5045524;28;20401;-73
2022/03/05 02:05:49;;;;;;;;;;;2.70;72.00;;;;;;5063090;28;19912;-74
2022/03/05 02:08:15;;;;;;;;;;;2.70;71.90;;;;;;5067847;28;19916;-74
2022/03/05 02:10:41;;;;;;;;;;;2.70;71.90;;;;;;5066621;28;19923;-73
2022/03/05 02:13:07;;;;;;;;;;;2.80;72.00;;;;;;5050908;28;19935;-74
2022/03/05 02:15:33;;;;;;;;;;;2.80;71.80;;;;;;5070693;28;19920;-74
2022/03/05 02:17:59;;;;;;;;;;;2.70;71.70;;;;;;5071869;28;20349;-74
2022/03/05 02:20:28;;;;;;;;;;;2.70;71.90;;;;;;5072110;28;19937;-74
2022/03/05 02:22:54;;;;;;;;;;;2.70;71.90;;;;;;5071784;28;19996;-74
2022/03/05 02:25:20;;;;;;;;;;;2.70;72.10;;;;;;5071967;28;19913;-74
2022/03/05 02:27:46;;;;;;;;;;;2.70;72.10;;;;;;5071822;28;19913;-74
2022/03/05 02:30:12;;;;;;;;;;;2.70;71.90;;;;;;5071679;28;19920;-74
2022/03/05 02:32:37;;;;;;;;;;;2.70;72.00;;;;;;5071610;28;19915;-74
2022/03/05 02:35:03;;;;;;;;;;;2.70;71.90;;;;;;5071695;28;19981;-74
2022/03/05 02:37:28;;;;;;;;;;;2.70;71.80;;;;;;5071647;28;19920;-74
2022/03/05 02:39:54;;;;;;;;;;;2.70;71.90;;;;;;5070165;28;20414;-74
2022/03/05 02:42:20;;;;;;;;;;;2.60;71.90;;;;;;5071557;28;19915;-74
2022/03/05 02:44:46;;;;;;;;;;;2.50;71.90;;;;;;5070243;28;19924;-74
2022/03/05 02:47:11;;;;;;;;;;;2.50;72.10;;;;;;5071527;28;19935;-74
2022/03/05 02:49:37;;;;;;;;;;;2.50;72.30;;;;;;5071410;28;19999;-74
2022/03/05 02:52:03;;;;;;;;;;;2.50;72.20;;;;;;5071411;28;19938;-74
2022/03/05 02:54:29;;;;;;;;;;;2.50;72.20;;;;;;5071417;28;19909;-74
2022/03/05 02:56:54;;;;;;;;;;;2.50;72.20;;;;;;5071458;28;19923;-74
2022/03/05 02:59:20;;;;;;;;;;;2.50;72.70;;;;;;5071791;28;20374;-73
2022/03/05 03:01:46;;;;;;;;;;;2.50;72.30;;;;;;5071202;28;19958;-74
2022/03/05 03:04:11;;;;;;;;;;;2.40;72.40;;;;;;5069973;28;19949;-74
2022/03/05 03:06:37;;;;;;;;;;;2.40;72.50;;;;;;5071176;28;19913;-74
2022/03/05 03:09:03;;;;;;;;;;;2.40;72.50;;;;;;5071173;28;20420;-74
2022/03/05 03:11:28;;;;;;;;;;;2.30;72.40;;;;;;5071101;28;19912;-74
2022/03/05 03:13:54;;;;;;;;;;;2.30;72.30;;;;;;5071086;28;20224;-74
2022/03/05 03:16:20;;;;;;;;;;;2.20;72.30;;;;;;5070908;28;19954;-74
2022/03/05 03:18:45;;;;;;;;;;;2.20;72.40;;;;;;5069549;28;20366;-74
2022/03/05 03:21:11;;;;;;;;;;;2.10;72.40;;;;;;5070938;28;19920;-74
2022/03/05 03:23:36;;;;;;;;;;;2.10;72.50;;;;;;5069681;28;19913;-74
2022/03/05 03:26:02;;;;;;;;;;;2.10;72.50;;;;;;5070829;28;19943;-73
2022/03/05 03:28:28;;;;;;;;;;;2.00;72.40;;;;;;5070714;28;19950;-74
2022/03/05 03:30:53;;;;;;;;;;;2.00;72.50;;;;;;5070769;28;20301;-74
2022/03/05 03:33:19;;;;;;;;;;;2.00;72.50;;;;;;5070793;28;19928;-74
2022/03/05 03:35:45;;;;;;;;;;;2.10;72.70;;;;;;5069472;28;20076;-74
2022/03/05 03:38:10;;;;;;;;;;;2.10;72.80;;;;;;5069530;28;19908;-74
2022/03/05 03:40:36;;;;;;;;;;;2.10;72.70;;;;;;5070577;28;19908;-74
2022/03/05 03:43:01;;;;;;;;;;;2.10;72.50;;;;;;5069282;28;19913;-74
2022/03/05 03:45:27;;;;;;;;;;;2.10;72.50;;;;;;5070483;28;19928;-74
2022/03/05 03:47:53;;;;;;;;;;;2.00;72.40;;;;;;5070515;28;19913;-73
2022/03/05 03:50:19;;;;;;;;;;;2.00;72.60;;;;;;5070412;28;19912;-74
2022/03/05 03:52:45;;;;;;;;;;;2.00;72.70;;;;;;5069022;28;20375;-74
2022/03/05 03:55:12;;;;;;;;;;;2.00;72.60;;;;;;5070325;28;19968;-74
2022/03/05 03:57:38;;;;;;;;;;;2.10;72.50;;;;;;5068915;28;19908;-74
2022/03/05 04:00:04;;;;;;;;;;;2.10;72.50;;;;;;5070139;28;19962;-73
2022/03/05 04:02:30;;;;;;;;;;;2.10;72.40;;;;;;5070067;28;19909;-74
2022/03/05 04:04:56;;;;;;;;;;;2.20;72.50;;;;;;5068982;28;19923;-74
2022/03/05 04:10:05;;;;;;;;;;;2.20;72.60;;;;;;5070224;28;19959;-73
2022/03/05 04:12:31;;;;;;;;;;;2.10;72.50;;;;;;5070253;28;19952;-74
2022/03/05 04:14:57;;;;;;;;;;;2.10;72.40;;;;;;5070037;28;19908;-74
2022/03/05 04:17:22;;;;;;;;;;;2.10;72.50;;;;;;5070278;28;19917;-74
2022/03/05 04:19:48;;;;;;;;;;;2.10;72.60;;;;;;5069764;28;19961;-74
2022/03/05 04:22:14;;;;;;;;;;;2.10;72.60;;;;;;5069868;28;19962;-74
2022/03/05 04:24:40;;;;;;;;;;;2.00;72.70;;;;;;5069717;28;19916;-74
2022/03/05 04:27:06;;;;;;;;;;;2.00;72.70;;;;;;5069658;28;19912;-74
2022/03/05 04:29:31;;;;;;;;;;;2.00;72.70;;;;;;5069567;28;19912;-74
2022/03/05 04:31:57;;;;;;;;;;;1.90;72.70;;;;;;5068355;28;19908;-73
2022/03/05 04:34:22;;;;;;;;;;;1.90;72.80;;;;;;5069396;28;19931;-74
2022/03/05 04:36:48;;;;;;;;;;;2.00;73.00;;;;;;5069038;28;19912;-74
2022/03/05 04:39:14;;;;;;;;;;;2.00;72.90;;;;;;5069335;28;19908;-74
2022/03/05 04:41:39;;;;;;;;;;;2.00;72.90;;;;;;5068178;28;20279;-73
2022/03/05 04:44:05;;;;;;;;;;;2.00;72.80;;;;;;5067881;28;19924;-74
2022/03/05 04:46:31;;;;;;;;;;;2.00;72.80;;;;;;5069187;28;19923;-74
2022/03/05 04:48:57;;;;;;;;;;;2.00;72.80;;;;;;5067846;28;19996;-73
2022/03/05 04:51:22;;;;;;;;;;;2.00;72.80;;;;;;5067887;28;19913;-74
2022/03/05 04:53:48;;;;;;;;;;;2.00;73.00;;;;;;5069107;28;19971;-74
2022/03/05 04:56:13;;;;;;;;;;;2.00;73.00;;;;;;5069145;28;19915;-74
2022/03/05 04:58:39;;;;;;;;;;;1.90;73.00;;;;;;5068924;28;19912;-73
2022/03/05 05:01:06;;;;;;;;;;;1.90;73.50;;;;;;5067620;28;19930;-74
2022/03/05 05:03:32;;;;;;;;;;;1.80;73.10;;;;;;5067846;28;19920;-74
2022/03/05 05:05:58;;;;;;;;;;;1.80;73.20;;;;;;5068911;28;20375;-74
2022/03/05 05:08:24;;;;;;;;;;;1.80;73.40;;;;;;5068794;28;19920;-74
2022/03/05 05:10:49;;;;;;;;;;;1.80;73.40;;;;;;5068860;28;19967;-74
2022/03/05 05:13:15;;;;;;;;;;;1.80;73.50;;;;;;5068732;28;19912;-74
2022/03/05 05:15:40;;;;;;;;;;;1.80;73.50;;;;;;5068788;28;19912;-74
2022/03/05 05:18:06;;;;;;;;;;;1.80;73.40;;;;;;5068635;28;19913;-74
2022/03/05 05:20:31;;;;;;;;;;;1.80;73.40;;;;;;5067390;28;20061;-74
2022/03/05 05:22:57;;;;;;;;;;;1.70;73.30;;;;;;5068532;28;19986;-73
2022/03/05 05:25:22;;;;;;;;;;;1.70;73.50;;;;;;5068618;28;19916;-73
2022/03/05 05:27:48;;;;;;;;;;;1.60;73.50;;;;;;5068503;28;19909;-73
2022/03/05 05:30:13;;;;;;;;;;;1.60;74.10;;;;;;5067170;28;19908;-74
2022/03/05 05:32:39;;;;;;;;;;;1.70;74.20;;;;;;5068605;28;19942;-74
2022/03/05 05:35:05;;;;;;;;;;;1.70;73.60;;;;;;5068338;28;20378;-74
2022/03/05 05:37:31;;;;;;;;;;;1.70;73.70;;;;;;5068349;28;20015;-74
2022/03/05 05:39:57;;;;;;;;;;;1.70;73.70;;;;;;5068388;28;19952;-74
2022/03/05 05:42:23;;;;;;;;;;;1.70;73.60;;;;;;5068459;28;19912;-74
2022/03/05 05:44:48;;;;;;;;;;;1.70;73.60;;;;;;5066879;28;19919;-74
2022/03/05 05:47:14;;;;;;;;;;;1.60;73.60;;;;;;5067626;28;19912;-73
2022/03/05 05:49:39;;;;;;;;;;;1.60;73.60;;;;;;5066832;28;19916;-74
2022/03/05 05:52:05;;;;;;;;;;;1.60;74.20;;;;;;5068163;28;20294;-74
2022/03/05 05:54:31;;;;;;;;;;;1.60;73.70;;;;;;5068225;28;19963;-74
2022/03/05 05:56:57;;;;;;;;;;;1.60;73.70;;;;;;5068241;28;19913;-74
2022/03/05 05:59:22;;;;;;;;;;;1.60;73.70;;;;;;5066771;28;19939;-74
2022/03/05 06:01:48;;;;;;;;;;;1.60;73.70;;;;;;5068190;28;19947;-74
2022/03/05 06:04:14;;;;;;;;;;;1.60;73.70;;;;;;5068139;28;19920;-74
2022/03/05 06:06:39;;;;;;;;;;;1.60;73.70;;;;;;5068119;28;20386;-74
2022/03/05 06:09:05;;;;;;;;;;;1.60;73.70;;;;;;5067919;28;20283;-74
2022/03/05 06:11:30;;;;;;;;;;;1.70;73.70;;;;;;5068052;28;19938;-74
2022/03/05 06:13:56;;;;;;;;;;;1.60;73.60;;;;;;5068104;28;19912;-74
2022/03/05 06:16:22;;;;;;;;;;;1.60;73.60;;;;;;5068060;28;19919;-74
2022/03/05 06:18:47;;;;;;;;;;;1.50;73.60;;;;;;5068341;28;19912;-73
2022/03/05 06:21:13;;;;;;;;;;;1.50;73.80;;;;;;5067876;28;19920;-74
2022/03/05 06:23:39;;;;;;;;;;;1.50;73.80;;;;;;5067909;28;19986;-74
2022/03/05 06:26:05;;;;;;;;;;;1.50;74.00;;;;;;5068014;28;19908;-73
2022/03/05 06:28:31;;;;;;;;;;;1.50;73.90;;;;;;5066524;28;19920;-74
2022/03/05 06:30:56;;;;;;;;;;;1.50;73.90;;;;;;5067744;28;19916;-74
2022/03/05 06:33:22;;;;;;;;;;;1.50;73.90;;;;;;5066183;28;20378;-74
2022/03/05 06:35:48;;;;;;;;;;;1.50;73.80;;;;;;5067763;28;19962;-74
2022/03/05 06:38:13;;;;;;;;;;;1.50;74.00;;;;;;5066460;28;19908;-73
2022/03/05 06:40:39;;;;;;;;;;;1.50;73.90;;;;;;5067705;28;19923;-74
2022/03/05 06:43:05;;;;;;;;;;;1.50;73.90;;;;;;5067678;28;20252;-74
2022/03/05 06:45:30;;;;;;;;;;;1.50;73.80;;;;;;5067777;28;19909;-74
2022/03/05 06:47:56;;;;;;;;;;;1.50;73.80;;;;;;5066411;28;20535;-74
2022/03/05 06:50:21;;;;;;;;;;;1.50;73.80;;;;;;5067735;28;20535;-73
2022/03/05 06:52:47;;;;;;;;;;;1.50;73.80;;;;;;5066196;28;19909;-74
2022/03/05 06:55:14;;;;;;;;;;;1.50;73.90;;;;;;5066344;28;19939;-73
2022/03/05 06:57:43;;;;;;;;;;;1.40;74.00;;;;;;5067418;28;19920;-73
2022/03/05 07:00:10;;;;;;;;;;;1.40;74.00;;;;;;5070401;28;19995;-74
2022/03/05 07:02:35;;;;;;;;;;;1.40;74.20;;;;;;5071255;28;20370;-72
2022/03/05 07:05:01;;;;;;;;;;;1.30;74.10;;;;;;5071191;28;20020;-74
2022/03/05 07:07:26;;;;;;;;;;;1.30;74.20;;;;;;5069902;28;19913;-73
2022/03/05 07:09:52;;;;;;;;;;;1.30;74.30;;;;;;5071143;28;20302;-74
2022/03/05 07:12:17;;;;;;;;;;;1.30;74.40;;;;;;5071299;28;19928;-73
2022/03/05 07:14:48;;;;;;;;;;;1.30;74.40;;;;;;5071022;28;19913;-73
2022/03/05 07:17:17;;;;;;;;;;;1.40;74.60;;;;;;5071223;28;19916;-74
2022/03/05 07:19:42;;;;;;;;;;;1.30;74.60;;;;;;5070688;28;19989;-73
2022/03/05 07:22:08;;;;;;;;;;;1.30;74.60;;;;;;5070872;28;19956;-74
2022/03/05 07:24:33;;;;;;;;;;;1.30;74.70;;;;;;5071088;28;19929;-74
2022/03/05 07:26:59;;;;;;;;;;;1.30;74.80;;;;;;5070935;28;19913;-74
2022/03/05 07:29:24;;;;;;;;;;;1.30;74.80;;;;;;5070703;28;19912;-73
2022/03/05 07:31:50;;;;;;;;;;;1.40;74.90;;;;;;5070569;28;19913;-74
2022/03/05 07:34:16;;;;;;;;;;;1.40;74.90;;;;;;5069145;28;19925;-74
2022/03/05 07:36:41;;;;;;;;;;;1.40;75.10;;;;;;5070770;28;19908;-74
2022/03/05 07:39:08;;;;;;;;;;;1.40;75.10;;;;;;5070520;28;19959;-73
2022/03/05 07:41:34;;;;;;;;;;;1.50;75.20;;;;;;5070570;28;20340;-73
2022/03/05 07:44:00;;;;;;;;;;;1.60;75.40;;;;;;5070343;28;19917;-74
2022/03/05 07:46:26;;;;;;;;;;;1.60;75.40;;;;;;5069031;28;19958;-73
2022/03/05 07:48:51;;;;;;;;;;;1.70;75.70;;;;;;5070352;28;19952;-74
2022/03/05 07:51:17;;;;;;;;;;;1.80;75.80;;;;;;5070442;28;19951;-74
2022/03/05 07:53:42;;;;;;;;;;;1.90;76.00;;;;;;5070194;28;20323;-73
2022/03/05 07:56:09;;;;;;;;;;;2.00;76.40;;;;;;5070079;28;19985;-74
2022/03/05 07:58:34;;;;;;;;;;;2.20;77.40;;;;;;5069545;28;19912;-73
2022/03/05 08:01:00;;;;;;;;;;;2.70;78.20;;;;;;5068568;28;20332;-74
2022/03/05 08:03:25;;;;;;;;;;;3.20;78.10;;;;;;5070035;28;19920;-74
2022/03/05 08:05:51;;;;;;;;;;;3.50;77.50;;;;;;5069961;28;19914;-74
2022/03/05 08:08:16;;;;;;;;;;;3.70;77.20;;;;;;5070190;28;19919;-74
2022/03/05 08:10:42;;;;;;;;;;;4.00;77.50;;;;;;5069180;28;19940;-74
2022/03/05 08:13:07;;;;;;;;;;;4.40;77.80;;;;;;5069952;28;19912;-74
2022/03/05 08:15:33;;;;;;;;;;;4.80;77.60;;;;;;5069848;28;19912;-74
2022/03/05 08:18:00;;;;;;;;;;;5.10;77.50;;;;;;5069705;28;19923;-74
2022/03/05 08:20:26;;;;;;;;;;;5.40;77.30;;;;;;5069373;28;19935;-73
2022/03/05 08:22:52;;;;;;;;;;;5.90;77.80;;;;;;5069528;28;20003;-74
2022/03/05 08:25:18;;;;;;;;;;;6.40;77.60;;;;;;5069329;28;20032;-74
2022/03/05 08:27:44;;;;;;;;;;;6.80;77.60;;;;;;5069390;28;19927;-74
2022/03/05 08:30:10;;;;;;;;;;;7.20;78.00;;;;;;5069148;28;19915;-75
2022/03/05 08:32:35;;;;;;;;;;;7.90;78.70;;;;;;5069000;28;19908;-74
2022/03/05 08:35:01;;;;;;;;;;;8.70;79.40;;;;;;5068848;28;19920;-74
2022/03/05 08:37:27;;;;;;;;;;;9.60;79.80;;;;;;5069482;28;20449;-74
2022/03/05 08:39:53;;;;;;;;;;;10.50;79.80;;;;;;5068933;28;20350;-74
2022/03/05 08:42:19;;;;;;;;;;;11.30;79.20;;;;;;5067562;28;20190;-74
2022/03/05 08:44:44;;;;;;;;;;;12.00;78.60;;;;;;5068546;28;19912;-74
2022/03/05 08:47:10;;;;;;;;;;;12.70;78.40;;;;;;5068530;28;19935;-74
2022/03/05 08:49:36;;;;;;;;;;;13.20;77.70;;;;;;5068561;28;19909;-74
2022/03/05 08:52:01;;;;;;;;;;;13.70;76.70;;;;;;5068754;28;19912;-74
2022/03/05 08:54:27;;;;;;;;;;;14.00;76.80;;;;;;5068629;28;19995;-74
2022/03/05 08:56:52;;;;;;;;;;;14.30;76.70;;;;;;5068379;28;19912;-73
2022/03/05 08:59:18;;;;;;;;;;;14.40;76.00;;;;;;5068691;28;20427;-73
2022/03/05 09:01:44;;;;;;;;;;;14.30;75.90;;;;;;5068217;28;19909;-73
2022/03/05 09:04:09;;;;;;;;;;;14.40;76.80;;;;;;5067687;28;20050;-73
2022/03/05 09:06:35;;;;;;;;;;;14.70;78.00;;;;;;5067356;28;19970;-73
2022/03/05 09:09:01;;;;;;;;;;;15.20;78.60;;;;;;5066647;28;19920;-74
2022/03/05 09:11:26;;;;;;;;;;;15.70;79.70;;;;;;5067825;28;20025;-73
2022/03/05 09:13:52;;;;;;;;;;;16.30;80.20;;;;;;5068031;28;19913;-74
2022/03/05 09:16:18;;;;;;;;;;;16.90;79.90;;;;;;5068056;28;19913;-74
2022/03/05 09:18:43;;;;;;;;;;;17.30;80.10;;;;;;5068108;28;19909;-74
2022/03/05 09:21:09;;;;;;;;;;;17.70;80.90;;;;;;5067908;28;19912;-73
2022/03/05 09:23:34;;;;;;;;;;;18.00;80.80;;;;;;5067400;28;19924;-73
2022/03/05 09:26:00;;;;;;;;;;;18.30;80.50;;;;;;5067789;28;19915;-73
2022/03/05 09:28:26;;;;;;;;;;;18.50;80.50;;;;;;5067180;28;19915;-74
2022/03/05 09:30:51;;;;;;;;;;;18.80;79.60;;;;;;5067811;28;19939;-74
2022/03/05 09:33:17;;;;;;;;;;;19.10;79.00;;;;;;5067705;28;19917;-74
2022/03/05 09:35:43;;;;;;;;;;;19.40;78.50;;;;;;5067743;28;19920;-74
2022/03/05 09:38:09;;;;;;;;;;;19.50;77.40;;;;;;5066480;28;20008;-74
2022/03/05 09:40:35;;;;;;;;;;;19.80;77.50;;;;;;5067274;28;19948;-74
2022/03/05 09:43:01;;;;;;;;;;;20.10;77.10;;;;;;5067476;28;19942;-73
2022/03/05 09:45:27;;;;;;;;;;;20.30;76.70;;;;;;5067311;28;19916;-73
2022/03/05 09:47:54;;;;;;;;;;;20.60;75.60;;;;;;5086777;28;20391;-73
2022/03/05 09:50:20;;;;;;;;;;;20.80;76.00;;;;;;5087259;28;19908;-74
2022/03/05 09:52:45;;;;;;;;;;;21.00;76.50;;;;;;5086974;28;20457;-73
2022/03/05 09:55:11;;;;;;;;;;;21.30;76.70;;;;;;5086804;28;20385;-74
2022/03/05 09:57:37;;;;;;;;;;;21.50;76.30;;;;;;5087054;28;20324;-74
2022/03/05 10:00:03;;;;;;;;;;;21.30;76.50;;;;;;5086815;28;20006;-73
2022/03/05 10:02:29;;;;;;;;;;;21.10;76.50;;;;;;5098282;28;19912;-73
2022/03/05 10:05:13;;;;;;;;;;;21.20;77.50;;;;;;5096191;28;19920;-74
2022/03/05 10:07:57;;;;;;;;;;;21.40;76.50;;;;;;5095352;28;19920;-73
2022/03/05 10:10:22;;;;;;;;;;;21.60;76.50;;;;;;5090014;28;19923;-73
2022/03/05 10:12:48;;;;;;;;;;;21.80;75.00;;;;;;5086810;28;19912;-74
2022/03/05 10:15:17;;;;;;;;;;;21.90;75.20;;;;;;5086728;28;19912;-72
2022/03/05 10:17:54;;;;;;;;;;;22.20;74.50;;;;;;5084367;28;19917;-73
2022/03/05 10:20:20;;;;;;;;;;;22.30;74.70;;;;;;5086326;28;19915;-73
2022/03/05 10:22:53;;;;;;;;;;;22.60;73.90;;;;;;5084401;28;19919;-74
2022/03/05 10:25:26;;;;;;;;;;;22.80;74.70;;;;;;5087408;28;20005;-73
2022/03/05 10:27:52;;;;;;;;;;;22.90;75.00;;;;;;5087672;28;20338;-73
2022/03/05 10:30:27;;;;;;;;;;;22.70;75.60;;;;;;5087620;28;19926;-73
2022/03/05 10:32:52;;;;;;;;;;;22.40;76.90;;;;;;5087767;28;19908;-73
2022/03/05 10:35:18;;;;;;;;;;;22.50;77.00;;;;;;5090028;28;19928;-73
2022/03/05 10:37:49;;;;;;;;;;;22.50;77.40;;;;;;5091455;28;19909;-73
2022/03/05 10:40:15;;;;;;;;;;;22.70;78.00;;;;;;5089828;28;20313;-73
2022/03/05 10:42:46;;;;;;;;;;;23.10;78.10;;;;;;5091002;28;19912;-73
2022/03/05 10:45:24;;;;;;;;;;;23.40;77.10;;;;;;5091516;28;20420;-73
2022/03/05 10:47:50;;;;;;;;;;;23.60;76.70;;;;;;5089999;28;19919;-73
2022/03/05 10:50:29;;;;;;;;;;;23.80;76.60;;;;;;5091461;28;19919;-73
2022/03/05 10:52:57;;;;;;;;;;;23.80;77.10;;;;;;5090633;28;19912;-72
2022/03/05 10:55:23;;;;;;;;;;;23.60;76.20;;;;;;5087277;28;19912;-72
2022/03/05 10:57:58;;;;;;;;;;;23.50;76.40;;;;;;5091231;28;19961;-72
2022/03/05 11:00:28;;;;;;;;;;;23.60;77.00;;;;;;5087185;28;19912;-73
2022/03/05 11:02:55;;;;;;;;;;;23.60;76.10;;;;;;5090439;28;20387;-73
2022/03/05 11:05:22;;;;;;;;;;;23.50;74.90;;;;;;5090496;28;19920;-71
2022/03/05 11:07:51;;;;;;;;;;;23.30;75.00;;;;;;5090738;28;20072;-73
2022/03/05 11:10:17;;;;;;;;;;;23.20;74.80;;;;;;5090796;28;20313;-73
2022/03/05 11:12:45;;;;;;;;;;;23.20;74.50;;;;;;5089008;28;19920;-73
2022/03/05 11:15:11;;;;;;;;;;;23.00;73.90;;;;;;5090651;28;20003;-73
2022/03/05 11:17:36;;;;;;;;;;;22.50;73.30;;;;;;5090313;28;20010;-69
2022/03/05 11:20:03;;;;;;;;;;;22.20;72.90;;;;;;5090426;28;20541;-73
2022/03/05 11:22:29;;;;;;;;;;;21.70;73.80;;;;;;5091027;28;19908;-73
2022/03/05 11:24:55;;;;;;;;;;;21.60;73.40;;;;;;5089024;28;19916;-73
2022/03/05 11:27:21;;;;;;;;;;;21.60;72.60;;;;;;5089430;28;19912;-73
2022/03/05 11:29:57;;;;;;;;;;;21.30;73.10;;;;;;5090466;28;19917;-73
2022/03/05 11:32:27;;;;;;;;;;;21.20;72.90;;;;;;5090420;28;19991;-73
2022/03/05 11:34:53;;;;;;;;;;;21.00;73.10;;;;;;5090333;28;19920;-72
2022/03/05 11:37:31;;;;;;;;;;;21.10;73.30;;;;;;5090269;28;19923;-73
2022/03/05 11:39:58;;;;;;;;;;;21.30;73.80;;;;;;5090653;28;20334;-74
2022/03/05 11:42:28;;;;;;;;;;;21.10;72.30;;;;;;5087437;28;19915;-73
2022/03/05 11:44:54;;;;;;;;;;;20.90;72.90;;;;;;5089506;28;19915;-73
2022/03/05 11:47:24;;;;;;;;;;;21.10;74.60;;;;;;5090093;28;19912;-73
2022/03/05 11:49:58;;;;;;;;;;;21.80;75.20;;;;;;5089283;28;19954;-73
2022/03/05 11:52:40;;;;;;;;;;;22.10;73.30;;;;;;5087381;28;19957;-72
2022/03/05 11:55:16;;;;;;;;;;;21.80;70.70;;;;;;5087757;28;20277;-73
2022/03/05 11:58:02;;;;;;;;;;;21.20;69.80;;;;;;5089584;28;19908;-73
2022/03/05 12:00:29;;;;;;;;;;;20.20;69.30;;;;;;5088029;28;19912;-73
2022/03/05 12:02:55;;;;;;;;;;;19.20;69.20;;;;;;5089985;28;19946;-72
2022/03/05 12:05:36;;;;;;;;;;;18.20;69.90;;;;;;5088118;28;20015;-72
2022/03/05 12:08:02;;;;;;;;;;;17.80;71.00;;;;;;5090921;28;19908;-72
2022/03/05 12:10:28;;;;;;;;;;;17.80;72.30;;;;;;5090083;28;20342;-74
2022/03/05 12:12:54;;;;;;;;;;;18.60;73.20;;;;;;5090069;28;19909;-65
2022/03/05 12:15:33;;;;;;;;;;;19.60;73.20;;;;;;5089523;28;20012;-73
2022/03/05 12:18:00;;;;;;;;;;;20.50;72.00;;;;;;5089014;28;19916;-72
2022/03/05 12:20:29;;;;;;;;;;;20.90;69.80;;;;;;5089255;28;19977;-74
2022/03/05 12:23:05;;;;;;;;;;;20.30;67.50;;;;;;5088604;28;19909;-74
2022/03/05 12:25:31;;;;;;;;;;;19.40;66.90;;;;;;5086898;28;19919;-74
2022/03/05 12:27:57;;;;;;;;;;;18.40;67.30;;;;;;5089562;28;19912;-74
2022/03/05 12:30:28;;;;;;;;;;;17.70;67.70;;;;;;5088609;28;20232;-72
2022/03/05 12:32:58;;;;;;;;;;;17.10;67.80;;;;;;5089638;28;19951;-73
2022/03/05 12:35:24;;;;;;;;;;;16.90;69.60;;;;;;5089447;28;19940;-71
2022/03/05 12:37:50;;;;;;;;;;;17.20;70.20;;;;;;5089843;28;19908;-74
2022/03/05 12:40:15;;;;;;;;;;;17.70;69.40;;;;;;5088923;28;19958;-74
2022/03/05 12:42:45;;;;;;;;;;;18.50;69.90;;;;;;5087850;28;19994;-72
2022/03/05 12:45:18;;;;;;;;;;;19.10;69.00;;;;;;5088615;28;19920;-73
2022/03/05 12:47:44;;;;;;;;;;;19.70;69.00;;;;;;5086461;28;19969;-74
2022/03/05 12:50:36;;;;;;;;;;;20.00;67.20;;;;;;5088191;28;19978;-72
2022/03/05 12:53:06;;;;;;;;;;;19.50;66.50;;;;;;5080149;28;19908;-74
2022/03/05 12:55:36;;;;;;;;;;;19.00;67.40;;;;;;5089942;28;19912;-74
2022/03/05 12:58:04;;;;;;;;;;;18.80;67.40;;;;;;5086982;28;19908;-72
2022/03/05 13:00:30;;;;;;;;;;;18.20;67.10;;;;;;5088065;28;19943;-74
2022/03/05 13:02:55;;;;;;;;;;;17.50;67.30;;;;;;5086593;28;19944;-73
2022/03/05 13:05:21;;;;;;;;;;;17.30;68.70;;;;;;5087927;28;19916;-73
2022/03/05 13:07:47;;;;;;;;;;;17.60;68.90;;;;;;5087867;28;20307;-73
2022/03/05 13:10:13;;;;;;;;;;;17.80;68.60;;;;;;5089296;28;19919;-73
2022/03/05 13:12:38;;;;;;;;;;;18.10;68.90;;;;;;5088214;28;20370;-73
2022/03/05 13:15:05;;;;;;;;;;;18.40;68.60;;;;;;5088806;28;19912;-72
2022/03/05 13:17:30;;;;;;;;;;;18.80;68.60;;;;;;5088601;28;19912;-75
2022/03/05 13:20:05;;;;;;;;;;;19.00;68.90;;;;;;5087583;28;20340;-73
2022/03/05 13:22:31;;;;;;;;;;;19.20;68.20;;;;;;5085964;28;19912;-73
2022/03/05 13:25:22;;;;;;;;;;;19.00;68.20;;;;;;5085903;28;20303;-73
2022/03/05 13:27:48;;;;;;;;;;;19.00;68.70;;;;;;5084859;28;19952;-75
2022/03/05 13:30:18;;;;;;;;;;;19.00;68.70;;;;;;5087964;28;20427;-74
2022/03/05 13:32:44;;;;;;;;;;;18.80;67.20;;;;;;5087396;28;19923;-74
2022/03/05 13:35:10;;;;;;;;;;;18.40;66.40;;;;;;5087483;28;20330;-72
2022/03/05 13:37:39;;;;;;;;;;;18.00;66.40;;;;;;5086707;28;20457;-73
2022/03/05 13:40:05;;;;;;;;;;;17.90;66.00;;;;;;5087520;28;19988;-73
2022/03/05 13:42:32;;;;;;;;;;;17.80;66.30;;;;;;5086475;28;19920;-73
2022/03/05 13:45:03;;;;;;;;;;;18.00;66.00;;;;;;5086180;28;19925;-73
2022/03/05 13:47:29;;;;;;;;;;;18.00;66.00;;;;;;5087793;28;20016;-72
2022/03/05 13:50:03;;;;;;;;;;;17.90;64.80;;;;;;5088434;28;20031;-73
2022/03/05 13:52:31;;;;;;;;;;;17.70;64.80;;;;;;5087783;28;19919;-74
2022/03/05 13:55:07;;;;;;;;;;;17.50;65.70;;;;;;5088153;28;20228;-74
2022/03/05 13:57:33;;;;;;;;;;;17.40;65.30;;;;;;5087716;28;19990;-74
2022/03/05 14:00:09;;;;;;;;;;;17.30;66.00;;;;;;5087986;28;19959;-75
2022/03/05 14:02:35;;;;;;;;;;;17.10;66.30;;;;;;5087674;28;19916;-74
2022/03/05 14:05:14;;;;;;;;;;;17.00;66.00;;;;;;5086460;28;19918;-74
2022/03/05 14:07:44;;;;;;;;;;;16.70;65.50;;;;;;5088301;28;19912;-74
2022/03/05 14:10:11;;;;;;;;;;;16.30;65.30;;;;;;5087869;28;20287;-73
2022/03/05 14:12:37;;;;;;;;;;;15.80;65.10;;;;;;5088298;28;19912;-76
2022/03/05 14:15:05;;;;;;;;;;;15.40;64.30;;;;;;5088044;28;19927;-74
2022/03/05 14:17:40;;;;;;;;;;;14.80;63.60;;;;;;5088324;28;19912;-73
2022/03/05 14:20:12;;;;;;;;;;;14.20;63.70;;;;;;5087511;28;19999;-73
2022/03/05 14:22:45;;;;;;;;;;;13.90;64.10;;;;;;5086690;28;19938;-72
2022/03/05 14:25:12;;;;;;;;;;;13.60;64.20;;;;;;5087007;28;19924;-73